Time;durP1;ratioP1;P1;durP2;ratioP2;P2;SDS_P1;SDS_P2;PMS_P1;PMS_P2;Temp;Humidity;BMP_temperature;BMP_pressure;BME280_temperature;BME280_humidity;BME280_pressure;Samples;Min_cycle;Max_cycle;Signal;HPM_P1;HPM_P2
2021/06/10 00:01:22;;;;;;;10.80;8.23;;;;;;;15.84;100.00;97230.81;5032241;28;20032;-72
2021/06/10 00:03:47;;;;;;;16.98;8.95;;;;;;;15.75;100.00;97215.41;5048904;28;20029;-72
2021/06/10 00:06:13;;;;;;;10.90;8.63;;;;;;;15.70;100.00;97207.72;5051966;28;20399;-72
2021/06/10 00:08:38;;;;;;;19.50;10.60;;;;;;;15.74;100.00;97224.50;5051901;28;20025;-72
2021/06/10 00:11:04;;;;;;;19.00;10.73;;;;;;;15.65;100.00;97228.00;5051701;28;20055;-72
2021/06/10 00:13:30;;;;;;;20.02;11.13;;;;;;;15.58;100.00;97218.72;5051641;28;20021;-72
2021/06/10 00:15:56;;;;;;;14.98;10.88;;;;;;;15.49;100.00;97220.41;5051658;28;20024;-72
2021/06/10 00:18:22;;;;;;;15.63;10.77;;;;;;;15.40;100.00;97223.84;5051847;28;20562;-72
2021/06/10 00:20:48;;;;;;;19.05;11.35;;;;;;;15.36;100.00;97222.41;5050520;28;20029;-71
2021/06/10 00:23:14;;;;;;;17.20;10.82;;;;;;;15.33;100.00;97235.28;5047018;28;20124;-72
2021/06/10 00:25:40;;;;;;;17.50;11.30;;;;;;;15.26;100.00;97221.47;5014382;28;20370;-73
2021/06/10 00:28:06;;;;;;;17.33;11.43;;;;;;;15.20;100.00;97227.41;5031522;28;20041;-72
2021/06/10 00:30:33;;;;;;;18.55;11.52;;;;;;;15.18;100.00;97216.75;5030629;28;20017;-72
2021/06/10 00:32:58;;;;;;;15.70;11.82;;;;;;;15.13;100.00;97207.38;5031598;28;20028;-72
2021/06/10 00:35:25;;;;;;;21.77;11.95;;;;;;;15.15;100.00;97217.03;5030456;28;20412;-72
2021/06/10 00:37:51;;;;;;;18.00;12.38;;;;;;;15.17;100.00;97219.56;5013886;28;20079;-72
2021/06/10 00:40:17;;;;;;;27.33;12.10;;;;;;;15.19;100.00;97217.63;5043306;28;20036;-72
2021/06/10 00:42:43;;;;;;;19.25;12.75;;;;;;;15.10;100.00;97203.06;5051602;28;20416;-72
2021/06/10 00:45:10;;;;;;;18.83;12.85;;;;;;;15.10;100.00;97196.84;5051207;28;20029;-72
2021/06/10 00:47:36;;;;;;;19.08;12.00;;;;;;;15.16;100.00;97209.81;5051274;28;20133;-72
2021/06/10 00:50:03;;;;;;;19.65;12.30;;;;;;;15.14;100.00;97198.28;5033203;28;20571;-72
2021/06/10 00:52:28;;;;;;;17.98;12.65;;;;;;;15.09;100.00;97193.31;5049983;28;20039;-72
2021/06/10 00:54:54;;;;;;;19.42;13.32;;;;;;;15.05;100.00;97193.69;5049988;28;20111;-73
2021/06/10 00:57:20;;;;;;;21.05;12.70;;;;;;;15.09;100.00;97200.53;5051147;28;20059;-73
2021/06/10 00:59:45;;;;;;;20.77;12.98;;;;;;;15.10;100.00;97199.56;5033249;28;20044;-72
2021/06/10 01:02:11;;;;;;;18.52;12.15;;;;;;;15.06;100.00;97192.72;5049778;28;20052;-72
2021/06/10 01:04:36;;;;;;;17.17;12.15;;;;;;;15.07;100.00;97202.50;5051077;28;20067;-71
2021/06/10 01:07:08;;;;;;;18.15;12.07;;;;;;;15.10;100.00;97203.06;5049564;28;20104;-72
2021/06/10 01:09:37;;;;;;;16.30;11.65;;;;;;;15.06;100.00;97203.47;5051001;28;20090;-72
2021/06/10 01:12:09;;;;;;;18.48;12.05;;;;;;;14.99;100.00;97196.91;5049661;28;20652;-72
2021/06/10 01:14:49;;;;;;;15.68;12.55;;;;;;;15.00;100.00;97198.63;5051043;28;20055;-72
2021/06/10 01:17:16;;;;;;;16.65;11.60;;;;;;;14.90;100.00;97195.84;5049740;28;20037;-72
2021/06/10 01:19:42;;;;;;;20.70;12.80;;;;;;;14.95;100.00;97206.25;5033168;28;20036;-73
2021/06/10 01:22:12;;;;;;;20.13;12.90;;;;;;;14.95;100.00;97203.56;5049612;28;20116;-73
2021/06/10 01:24:47;;;;;;;16.55;12.52;;;;;;;14.88;100.00;97205.91;5015681;28;20603;-73
2021/06/10 01:27:30;;;;;;;21.33;12.63;;;;;;;14.69;100.00;97196.81;5033897;28;20101;-75
2021/06/10 01:30:10;;;;;;;23.75;12.65;;;;;;;14.69;100.00;97211.13;5033875;28;20041;-72
2021/06/10 01:32:39;;;;;;;22.33;12.98;;;;;;;14.67;100.00;97207.72;5047103;28;20396;-73
2021/06/10 01:35:06;;;;;;;20.02;12.70;;;;;;;14.49;100.00;97199.31;5036974;28;20427;-72
2021/06/10 01:37:33;;;;;;;15.55;11.88;;;;;;;14.38;100.00;97185.06;5050217;28;20054;-72
2021/06/10 01:39:59;;;;;;;20.98;13.27;;;;;;;14.41;100.00;97195.56;5033603;28;20025;-72
2021/06/10 01:42:26;;;;;;;16.92;12.30;;;;;;;14.35;100.00;97186.16;5033547;28;20040;-72
2021/06/10 01:44:52;;;;;;;15.85;12.57;;;;;;;14.23;100.00;97172.84;5050391;28;20033;-74
2021/06/10 01:47:18;;;;;;;17.92;12.88;;;;;;;14.38;100.00;97198.50;5050241;28;20065;-71
2021/06/10 01:49:43;;;;;;;18.50;11.82;;;;;;;14.39;100.00;97197.53;5050173;28;20064;-73
2021/06/10 01:52:09;;;;;;;24.00;12.40;;;;;;;14.21;100.00;97175.69;5049900;28;20504;-73
2021/06/10 01:54:35;;;;;;;18.75;12.48;;;;;;;14.28;100.00;97193.00;5050112;28;20546;-72
2021/06/10 01:57:03;;;;;;;18.13;12.32;;;;;;;14.35;100.00;97205.00;5049900;28;20155;-72
2021/06/10 01:59:29;;;;;;;17.80;12.27;;;;;;;14.28;100.00;97198.38;5049901;28;20444;-71
2021/06/10 02:02:02;;;;;;;19.63;12.07;;;;;;;14.24;100.00;97206.84;5034788;28;20021;-72
2021/06/10 02:04:29;;;;;;;17.73;11.50;;;;;;;14.24;100.00;97212.22;5029675;28;20440;-72
2021/06/10 02:06:55;;;;;;;15.93;11.57;;;;;;;14.21;100.00;97205.25;5028522;28;20021;-72
2021/06/10 02:09:22;;;;;;;18.10;11.63;;;;;;;14.13;100.00;97197.81;5016368;28;20026;-73
2021/06/10 02:11:48;;;;;;;20.42;12.68;;;;;;;14.15;100.00;97210.28;5049790;28;20025;-72
2021/06/10 02:14:18;;;;;;;20.75;12.65;;;;;;;14.17;100.00;97211.88;5031791;28;20116;-72
2021/06/10 02:16:44;;;;;;;16.50;12.18;;;;;;;14.21;100.00;97213.34;5029229;28;20416;-72
2021/06/10 02:19:10;;;;;;;16.80;11.45;;;;;;;14.19;100.00;97214.41;5012764;28;20029;-72
2021/06/10 02:21:35;;;;;;;16.80;11.45;;;;;;;14.09;100.00;97198.16;5029589;28;20030;-71
2021/06/10 02:24:01;;;;;;;17.58;11.55;;;;;;;14.21;100.00;97216.03;5021646;28;20087;-72
2021/06/10 02:26:26;;;;;;;17.02;11.05;;;;;;;14.08;100.00;97199.16;5023095;28;20541;-72
2021/06/10 02:28:52;;;;;;;18.33;12.10;;;;;;;14.08;100.00;97204.56;5014268;28;20472;-72
2021/06/10 02:31:17;;;;;;;16.65;12.43;;;;;;;14.07;100.00;97209.06;5015843;28;20579;-72
2021/06/10 02:33:45;;;;;;;19.23;12.18;;;;;;;14.11;100.00;97213.22;5032657;28;20065;-73
2021/06/10 02:36:14;;;;;;;27.15;12.73;;;;;;;14.15;100.00;97210.28;5032301;28;20049;-73
2021/06/10 02:38:44;;;;;;;22.25;12.00;;;;;;;14.03;100.00;97198.66;5020454;28;20037;-73
2021/06/10 02:41:10;;;;;;;17.33;12.18;;;;;;;14.17;100.00;97209.19;5029331;28;20104;-73
2021/06/10 02:43:37;;;;;;;19.83;12.00;;;;;;;14.16;100.00;97217.34;5020655;28;20461;-73
2021/06/10 02:46:03;;;;;;;22.73;12.07;;;;;;;14.18;100.00;97210.03;5029107;28;20456;-73
2021/06/10 02:48:29;;;;;;;17.42;11.27;;;;;;;14.25;100.00;97216.59;5028973;28;20389;-72
2021/06/10 02:50:56;;;;;;;15.75;11.63;;;;;;;14.31;100.00;97227.72;5026939;28;20407;-72
2021/06/10 02:53:22;;;;;;;30.50;11.40;;;;;;;14.37;100.00;97219.19;5030844;28;20196;-73
2021/06/10 02:55:49;;;;;;;22.80;11.07;;;;;;;14.36;100.00;97206.72;5025582;28;20104;-72
2021/06/10 02:58:17;;;;;;;15.15;10.82;;;;;;;14.40;100.00;97208.16;5031819;28;20072;-73
2021/06/10 03:00:43;;;;;;;19.75;10.90;;;;;;;14.48;100.00;97213.78;5028905;28;20033;-73
2021/06/10 03:03:12;;;;;;;21.75;11.05;;;;;;;14.51;100.00;97226.97;5028855;28;20026;-73
2021/06/10 03:05:38;;;;;;;16.95;10.23;;;;;;;14.42;100.00;97214.28;5028613;28;20026;-73
2021/06/10 03:08:04;;;;;;;17.95;10.43;;;;;;;14.39;100.00;97211.00;5012048;28;20522;-72
2021/06/10 03:10:34;;;;;;;19.45;9.43;;;;;;;14.40;100.00;97210.84;5028567;28;20516;-73
2021/06/10 03:13:01;;;;;;;19.17;9.63;;;;;;;14.55;100.00;97228.41;5012110;28;20037;-72
2021/06/10 03:15:28;;;;;;;12.80;9.57;;;;;;;14.57;100.00;97229.16;5028349;28;20032;-73
2021/06/10 03:17:54;;;;;;;18.23;10.02;;;;;;;14.57;100.00;97234.56;5028698;28;20041;-72
2021/06/10 03:20:20;;;;;;;19.38;9.80;;;;;;;14.66;100.00;97230.22;5028298;28;20065;-73
2021/06/10 03:22:45;;;;;;;15.68;10.60;;;;;;;14.69;100.00;97229.13;5028436;28;20119;-73
2021/06/10 03:25:12;;;;;;;18.20;10.82;;;;;;;14.64;100.00;97230.34;5013138;28;20034;-73
2021/06/10 03:27:37;;;;;;;25.65;10.48;;;;;;;14.58;100.00;97214.69;5028201;28;20183;-84
2021/06/10 03:30:07;;;;;;;17.75;9.88;;;;;;;14.66;100.00;97211.38;5043134;28;20056;-86
2021/06/10 03:32:34;;;;;;;24.02;10.57;;;;;;;14.72;100.00;97227.03;5022463;28;20026;-75
2021/06/10 03:35:01;;;;;;;15.35;10.10;;;;;;;14.84;100.00;97230.53;5028320;28;20101;-75
2021/06/10 03:37:27;;;;;;;16.63;12.05;;;;;;;14.79;100.00;97213.91;5012662;28;20054;-73
2021/06/10 03:39:53;;;;;;;20.15;11.25;;;;;;;14.91;100.00;97227.19;5028330;28;20088;-73
2021/06/10 03:42:19;;;;;;;20.65;10.57;;;;;;;14.96;100.00;97229.47;5011345;28;20085;-73
2021/06/10 03:44:46;;;;;;;17.35;10.35;;;;;;;14.94;100.00;97218.00;5011498;28;20026;-72
2021/06/10 03:47:13;;;;;;;23.58;11.07;;;;;;;15.02;100.00;97212.81;5034575;28;20025;-73
2021/06/10 03:49:39;;;;;;;22.25;10.98;;;;;;;15.23;100.00;97234.38;5047656;28;20025;-73
2021/06/10 03:52:05;;;;;;;17.25;10.38;;;;;;;15.25;100.00;97230.56;5031393;28;20029;-74
2021/06/10 03:54:31;;;;;;;17.08;10.40;;;;;;;15.37;100.00;97231.34;5047554;28;20480;-73
2021/06/10 03:56:57;;;;;;;19.73;11.82;;;;;;;15.49;100.00;97224.94;5047807;28;20025;-73
2021/06/10 03:59:22;;;;;;;18.50;11.98;;;;;;;15.58;100.00;97235.78;5032066;28;20440;-73
2021/06/10 04:01:48;;;;;;;18.42;11.65;;;;;;;15.70;100.00;97233.84;5032134;28;20067;-73
2021/06/10 04:04:14;;;;;;;18.42;11.45;;;;;;;15.74;100.00;97235.28;5047418;28;20152;-74
2021/06/10 04:06:39;;;;;;;22.48;12.02;;;;;;;15.69;100.00;97224.88;5031911;28;20022;-74
2021/06/10 04:09:08;;;;;;;29.67;11.65;;;;;;;15.84;100.00;97232.63;5030749;28;20488;-78
2021/06/10 04:11:34;;;;;;;21.02;11.38;;;;;;;15.92;100.00;97236.38;5014468;28;20032;-76
2021/06/10 04:13:59;;;;;;;23.83;11.73;;;;;;;15.97;100.00;97236.78;5047767;28;20028;-77
2021/06/10 04:16:26;;;;;;;24.25;10.88;;;;;;;15.97;100.00;97225.16;5025444;28;20017;-75
2021/06/10 04:19:27;;;;;;;;;;;;;;;;;;;;;
2021/06/10 04:21:53;;;;;;;39.35;14.52;;;;;;;16.06;100.00;97202.75;5013124;28;20044;-77
2021/06/10 04:24:19;;;;;;;37.38;14.45;;;;;;;16.18;100.00;97213.28;5012712;28;20109;-74
2021/06/10 04:26:45;;;;;;;23.58;11.88;;;;;;;16.36;100.00;97224.31;5020841;28;20472;-74
2021/06/10 04:29:10;;;;;;;30.13;13.60;;;;;;;16.35;100.00;97213.63;5047057;28;20021;-75
2021/06/10 04:31:36;;;;;;;19.67;11.82;;;;;;;16.33;100.00;97218.31;5030130;28;20029;-74
2021/06/10 04:34:02;;;;;;;24.20;11.98;;;;;;;16.42;100.00;97215.66;5031587;28;20021;-74
2021/06/10 04:36:27;;;;;;;19.65;10.90;;;;;;;16.40;100.00;97224.84;5046748;28;20055;-74
2021/06/10 04:38:53;;;;;;;21.23;11.82;;;;;;;16.60;100.00;97237.44;5046716;28;20472;-74
2021/06/10 04:41:21;;;;;;;19.85;11.13;;;;;;;16.50;100.00;97180.69;5046898;28;20108;-74
2021/06/10 04:43:46;;;;;;;21.52;10.90;;;;;;;16.89;100.00;97240.19;5027510;28;20106;-74
2021/06/10 04:46:12;;;;;;;21.30;11.68;;;;;;;17.07;100.00;97238.47;5026649;28;20017;-74
2021/06/10 04:48:38;;;;;;;20.80;11.07;;;;;;;17.74;100.00;97233.00;5020677;28;20090;-74
2021/06/10 04:51:04;;;;;;;21.02;9.57;;;;;;;19.52;90.14;97241.31;5046811;28;20078;-74
2021/06/10 04:53:30;;;;;;;16.92;9.70;;;;;;;20.57;82.21;97252.84;5047076;28;20439;-74
2021/06/10 04:55:56;;;;;;;17.67;8.55;;;;;;;21.30;76.97;97253.88;5046485;28;20021;-74
2021/06/10 04:58:21;;;;;;;12.82;9.48;;;;;;;22.39;71.42;97265.19;5015299;28;20026;-74
2021/06/10 05:00:47;;;;;;;30.95;9.13;;;;;;;23.57;66.45;97264.91;5028516;28;20032;-75
2021/06/10 05:03:12;;;;;;;17.05;9.90;;;;;;;23.86;64.92;97269.63;5031315;28;20498;-75
2021/06/10 05:05:41;;;;;;;15.50;8.73;;;;;;;23.48;64.72;97246.91;5031040;28;20029;-75
2021/06/10 05:08:07;;;;;;;21.15;9.48;;;;;;;23.69;64.10;97268.91;5031209;28;20029;-75
2021/06/10 05:10:33;;;;;;;15.68;9.45;;;;;;;23.36;64.25;97261.97;5046593;28;20029;-74
2021/06/10 05:12:58;;;;;;;12.43;8.40;;;;;;;22.75;67.71;97279.22;5013441;28;20032;-75
2021/06/10 05:15:24;;;;;;;18.23;8.90;;;;;;;22.91;67.72;97265.53;5031114;28;20029;-75
2021/06/10 05:17:50;;;;;;;21.52;10.20;;;;;;;24.22;62.79;97271.53;5035877;28;20103;-76
2021/06/10 05:20:16;;;;;;;13.57;8.52;;;;;;;23.71;63.42;97272.34;5026446;28;20179;-75
2021/06/10 05:22:41;;;;;;;16.88;8.77;;;;;;;22.84;66.10;97272.69;5026379;28;20033;-76
2021/06/10 05:25:08;;;;;;;12.75;8.30;;;;;;;22.03;69.45;97283.81;5009970;28;20034;-75
2021/06/10 05:27:34;;;;;;;16.50;8.85;;;;;;;21.43;72.42;97283.31;5042323;28;20037;-75
2021/06/10 05:30:03;;;;;;;15.57;9.95;;;;;;;20.93;75.28;97284.22;5029563;28;20032;-75
2021/06/10 05:32:29;;;;;;;23.98;11.80;;;;;;;20.32;78.80;97283.63;5029749;28;20025;-75
2021/06/10 05:34:55;;;;;;;16.50;9.85;;;;;;;19.88;82.00;97297.22;5045837;28;20137;-75
2021/06/10 05:37:20;;;;;;;18.40;10.63;;;;;;;19.56;84.59;97285.28;5046098;28;20061;-76
2021/06/10 05:39:46;;;;;;;21.70;10.32;;;;;;;18.96;87.25;97274.16;5030768;28;20055;-75
2021/06/10 05:42:13;;;;;;;19.13;12.18;;;;;;;19.07;87.57;97300.22;5046208;28;20048;-75
2021/06/10 05:44:39;;;;;;;15.93;11.10;;;;;;;18.87;89.45;97302.19;5029399;28;20472;-76
2021/06/10 05:47:04;;;;;;;24.85;11.70;;;;;;;18.60;92.00;97292.22;5030677;28;20056;-76
2021/06/10 05:49:30;;;;;;;25.90;12.63;;;;;;;18.67;92.82;97308.75;5030807;28;20025;-75
2021/06/10 05:51:55;;;;;;;31.70;12.50;;;;;;;18.78;93.54;97317.50;5030615;28;20036;-75
2021/06/10 05:54:21;;;;;;;29.38;12.27;;;;;;;18.69;92.43;97302.16;5030825;28;20025;-75
2021/06/10 05:56:47;;;;;;;17.90;11.68;;;;;;;18.52;93.27;97305.66;5030311;28;20065;-75
2021/06/10 05:59:12;;;;;;;19.35;11.77;;;;;;;18.58;95.17;97359.25;5045965;28;20082;-75
2021/06/10 06:01:38;;;;;;;27.95;12.82;;;;;;;18.26;96.51;97348.81;5046054;28;20029;-75
2021/06/10 06:04:04;;;;;;;22.25;12.35;;;;;;;18.07;98.02;97346.13;5045904;28;20036;-75
2021/06/10 06:06:29;;;;;;;14.50;11.60;;;;;;;17.83;100.00;97368.28;5045949;28;20018;-76
2021/06/10 06:08:55;;;;;;;17.58;11.77;;;;;;;17.60;100.00;97345.22;5045705;28;20021;-75
2021/06/10 06:11:20;;;;;;;15.95;11.77;;;;;;;17.64;100.00;97379.09;5033561;28;20021;-76
2021/06/10 06:14:06;;;;;;;21.42;11.40;;;;;;;17.48;100.00;97370.66;5034253;28;20116;-75
2021/06/10 06:16:33;;;;;;;31.10;12.23;;;;;;;17.46;100.00;97391.59;5019579;28;20033;-76
2021/06/10 06:19:01;;;;;;;21.60;11.85;;;;;;;17.32;100.00;97373.06;5029307;28;20051;-75
2021/06/10 06:21:27;;;;;;;18.30;12.15;;;;;;;17.34;100.00;97380.06;5035061;28;20025;-75
2021/06/10 06:23:53;;;;;;;29.40;12.90;;;;;;;17.36;100.00;97398.84;5049220;28;20120;-75
2021/06/10 06:26:20;;;;;;;26.77;12.77;;;;;;;17.34;100.00;97399.00;5032736;28;20568;-75
2021/06/10 06:28:45;;;;;;;28.15;13.48;;;;;;;17.25;100.00;97390.88;5033709;28;20534;-76
2021/06/10 06:31:11;;;;;;;19.40;13.52;;;;;;;17.25;100.00;97412.50;5049281;28;20021;-76
2021/06/10 06:33:37;;;;;;;24.83;14.95;;;;;;;17.16;100.00;97410.63;5033945;28;20026;-75
2021/06/10 06:36:03;;;;;;;26.17;14.75;;;;;;;16.97;100.00;97400.63;5032250;28;20048;-75
2021/06/10 06:38:28;;;;;;;24.23;16.95;;;;;;;16.79;100.00;97392.31;5019726;28;20029;-75
2021/06/10 06:40:54;;;;;;;30.40;17.42;;;;;;;16.73;100.00;97395.53;5013747;28;20129;-75
2021/06/10 06:43:20;;;;;;;0.70;0.68;;;;;;;16.55;100.00;97389.06;5029214;28;20061;-75
2021/06/10 06:45:45;;;;;;;1.88;1.20;;;;;;;16.49;100.00;97391.47;5013895;28;20401;-74
2021/06/10 06:48:13;;;;;;;2.83;1.35;;;;;;;16.49;100.00;97388.75;5028842;28;20037;-75
2021/06/10 06:50:39;;;;;;;3.10;1.65;;;;;;;16.54;100.00;97397.28;5012510;28;20049;-75
2021/06/10 06:53:05;;;;;;;2.38;1.60;;;;;;;16.44;100.00;97386.44;5028830;28;20492;-74
2021/06/10 06:55:31;;;;;;;2.88;1.60;;;;;;;16.54;100.00;97391.91;5013709;28;20064;-74
2021/06/10 06:57:57;;;;;;;1.17;0.55;;;;;;;16.71;100.00;97415.59;5012110;28;20022;-74
2021/06/10 07:00:23;;;;;;;1.65;1.13;;;;;;;16.72;100.00;97415.47;5028765;28;20024;-74
2021/06/10 07:02:49;;;;;;;2.92;1.63;;;;;;;16.62;100.00;97394.78;5028698;28;20105;-74
2021/06/10 07:05:15;;;;;;;5.18;1.65;;;;;;;16.79;100.00;97413.06;5025093;28;20093;-74
2021/06/10 07:07:40;;;;;;;1.23;0.95;;;;;;;16.86;100.00;97407.97;5015330;28;20029;-75
2021/06/10 07:10:07;;;;;;;1.92;1.08;;;;;;;16.91;100.00;97419.22;5048386;28;20022;-75
2021/06/10 07:12:32;;;;;;;1.45;0.93;;;;;;;17.10;100.00;97420.13;5048529;28;20017;-75
2021/06/10 07:14:59;;;;;;;8.15;1.92;;;;;;;17.21;100.00;97425.44;5032925;28;20025;-75
2021/06/10 07:17:24;;;;;;;1.77;1.60;;;;;;;17.23;100.00;97419.88;5033232;28;20542;-74
2021/06/10 07:19:52;;;;;;;2.67;1.73;;;;;;;17.34;100.00;97436.00;5040642;28;20021;-75
2021/06/10 07:22:18;;;;;;;1.05;0.88;;;;;;;17.18;100.00;97416.75;5022180;28;20025;-75
2021/06/10 07:24:46;;;;;;;6.13;2.22;;;;;;;17.33;100.00;97440.53;5026245;28;20040;-75
2021/06/10 07:27:15;;;;;;;1.27;1.08;;;;;;;17.39;100.00;97449.06;5011570;28;20030;-75
2021/06/10 07:29:41;;;;;;;2.15;1.95;;;;;;;17.41;100.00;97447.94;5028487;28;20100;-75
2021/06/10 07:32:06;;;;;;;7.15;1.73;;;;;;;17.38;100.00;97442.81;5012797;28;20092;-75
2021/06/10 07:34:33;;;;;;;8.52;2.35;;;;;;;17.44;100.00;97441.41;5012995;28;20037;-75
2021/06/10 07:36:59;;;;;;;4.47;2.13;;;;;;;17.51;100.00;97448.81;5027596;28;20057;-75
2021/06/10 07:39:24;;;;;;;4.85;2.55;;;;;;;17.53;100.00;97440.56;5012735;28;20017;-74
2021/06/10 07:41:50;;;;;;;2.60;1.40;;;;;;;17.42;100.00;97430.72;5018852;28;20052;-76
2021/06/10 07:44:15;;;;;;;3.75;1.30;;;;;;;17.54;100.00;97426.91;5047679;28;20037;-75
2021/06/10 07:46:41;;;;;;;2.00;1.60;;;;;;;17.62;100.00;97440.63;5048060;28;20497;-75
2021/06/10 07:49:06;;;;;;;1.75;1.17;;;;;;;17.69;100.00;97427.34;5014713;28;20029;-75
2021/06/10 07:51:32;;;;;;;2.15;1.25;;;;;;;17.74;100.00;97423.25;5011348;28;20033;-76
2021/06/10 07:53:58;;;;;;;1.90;1.80;;;;;;;17.87;100.00;97425.69;5027826;28;20030;-76
2021/06/10 07:56:23;;;;;;;0.98;0.95;;;;;;;18.05;100.00;97442.03;5021114;28;20136;-76
2021/06/10 07:58:49;;;;;;;2.25;1.38;;;;;;;18.16;100.00;97422.91;5012722;28;20512;-74
2021/06/10 08:01:14;;;;;;;1.42;1.15;;;;;;;18.44;100.00;97430.13;5027524;28;20047;-75
2021/06/10 08:03:41;;;;;;;3.22;1.48;;;;;;;18.68;100.00;97426.94;5018015;28;20017;-74
2021/06/10 08:06:06;;;;;;;3.22;1.15;;;;;;;18.98;100.00;97440.22;5047206;28;20500;-75
2021/06/10 08:08:32;;;;;;;3.55;1.90;;;;;;;19.24;100.00;97434.97;5019668;28;20115;-74
2021/06/10 08:11:03;;;;;;;2.13;1.25;;;;;;;19.48;100.00;97443.41;5027667;28;20394;-74
2021/06/10 08:13:29;;;;;;;2.17;1.13;;;;;;;19.62;100.00;97437.50;5038988;28;20029;-75
2021/06/10 08:15:54;;;;;;;3.40;1.02;;;;;;;20.03;100.00;97434.13;5032257;28;20054;-74
2021/06/10 08:18:20;;;;;;;0.68;0.68;;;;;;;20.43;98.49;97433.63;5030566;28;20052;-74
2021/06/10 08:20:46;;;;;;;0.60;0.60;;;;;;;20.81;95.53;97416.06;5032319;28;20064;-74
2021/06/10 08:23:13;;;;;;;0.60;0.60;;;;;;;21.17;91.49;97432.22;5047151;28;20060;-74
2021/06/10 08:25:43;;;;;;;3.38;1.08;;;;;;;21.39;86.15;97437.06;5031768;28;20041;-74
2021/06/10 08:28:10;;;;;;;0.95;0.85;;;;;;;21.28;85.63;97412.91;5038067;28;20057;-74
2021/06/10 08:30:36;;;;;;;4.03;0.80;;;;;;;21.26;86.52;97404.88;5047126;28;20025;-74
2021/06/10 08:33:01;;;;;;;5.47;1.42;;;;;;;21.99;83.60;97416.84;5046734;28;20480;-74
2021/06/10 08:35:27;;;;;;;1.60;1.30;;;;;;;23.02;81.97;97413.31;5048948;28;20053;-74
2021/06/10 08:37:53;;;;;;;0.80;0.80;;;;;;;24.12;72.14;97410.34;5050338;28;20032;-74
2021/06/10 08:40:19;;;;;;;0.40;0.40;;;;;;;25.47;64.83;97390.97;5050111;28;20029;-75
2021/06/10 08:42:45;;;;;;;0.40;0.40;;;;;;;27.35;57.27;97427.78;5051625;28;20116;-74
2021/06/10 08:45:19;;;;;;;5.55;0.80;;;;;;;29.29;51.50;97425.88;5034648;28;20040;-74
2021/06/10 08:47:46;;;;;;;0.50;0.50;;;;;;;30.76;46.26;97428.59;5031595;28;20044;-74
2021/06/10 08:50:16;;;;;;;0.30;0.30;;;;;;;31.66;44.25;97445.38;5027576;28;20040;-74
2021/06/10 08:52:42;;;;;;;0.50;0.50;;;;;;;32.83;39.17;97434.84;5031521;28;20033;-74
2021/06/10 08:55:11;;;;;;;0.13;0.13;;;;;;;33.68;40.19;97447.22;5048067;28;20089;-74
2021/06/10 08:57:37;;;;;;;0.47;0.30;;;;;;;33.53;39.17;97431.03;5050058;28;20056;-74
2021/06/10 09:00:04;;;;;;;0.50;0.50;;;;;;;33.81;37.68;97435.84;5049841;28;20056;-74
2021/06/10 09:02:30;;;;;;;0.30;0.30;;;;;;;34.63;36.54;97430.88;5046777;28;20108;-75
2021/06/10 09:05:11;;;;;;;0.10;0.10;;;;;;;35.28;34.09;97431.19;5030134;28;20113;-75
2021/06/10 09:07:37;;;;;;;0.13;0.13;;;;;;;36.36;32.09;97438.84;5034789;28;20024;-75
2021/06/10 09:10:04;;;;;;;0.50;0.50;;;;;;;35.07;35.21;97445.84;5051025;28;20279;-74
2021/06/10 09:12:44;;;;;;;8.35;1.13;;;;;;;34.78;36.82;97432.00;5049609;28;20064;-74
2021/06/10 09:15:10;;;;;;;0.70;0.47;;;;;;;34.61;37.65;97435.88;5049819;28;20032;-75
2021/06/10 09:17:38;;;;;;;0.30;0.30;;;;;;;35.65;33.75;97423.16;5030749;28;20029;-75
2021/06/10 09:20:27;;;;;;;0.38;0.38;;;;;;;35.41;34.18;97424.44;5031290;28;20044;-74
2021/06/10 09:23:08;;;;;;;0.20;0.20;;;;;;;32.92;34.51;97422.31;5031035;28;20025;-74
2021/06/10 09:25:34;;;;;;;0.30;0.30;;;;;;;32.57;39.06;97434.22;5029691;28;20543;-74
2021/06/10 09:28:04;;;;;;;0.55;0.55;;;;;;;30.89;40.56;97417.41;5013273;28;20030;-74
2021/06/10 09:30:36;;;;;;;0.52;0.40;;;;;;;29.26;44.06;97407.03;5029460;28;20108;-75
2021/06/10 09:33:07;;;;;;;1.75;0.88;;;;;;;28.71;47.66;97410.25;5029701;28;20032;-75
2021/06/10 09:35:34;;;;;;;0.35;0.35;;;;;;;28.68;48.40;97396.91;5012904;28;20056;-75
2021/06/10 09:38:06;;;;;;;0.47;0.47;;;;;;;29.89;47.29;97405.34;5030917;28;20117;-74
2021/06/10 09:40:32;;;;;;;0.55;0.43;;;;;;;31.39;44.94;97430.13;5029567;28;20030;-75
2021/06/10 09:42:58;;;;;;;1.20;0.85;;;;;;;33.26;41.17;97421.53;5029752;28;20035;-74
2021/06/10 09:45:29;;;;;;;0.30;0.30;;;;;;;33.25;38.40;97406.00;5032265;28;20029;-74
2021/06/10 09:48:01;;;;;;;4.80;0.73;;;;;;;33.76;39.36;97425.50;5034749;28;20079;-74
2021/06/10 09:50:28;;;;;;;0.47;0.47;;;;;;;33.86;36.71;97411.00;5034416;28;20423;-74
2021/06/10 09:53:00;;;;;;;0.38;0.38;;;;;;;33.94;36.96;97418.06;5039884;28;20511;-74
2021/06/10 09:55:41;;;;;;;0.95;0.77;;;;;;;35.11;35.46;97414.50;5036665;28;20028;-74
2021/06/10 09:58:15;;;;;;;0.90;0.90;;;;;;;34.89;35.39;97415.50;5037250;28;20044;-75
2021/06/10 10:01:20;;;;;;;0.47;0.47;;;;;;;34.67;35.48;97399.53;5050876;28;20021;-74
2021/06/10 10:03:47;;;;;;;0.38;0.38;;;;;;;35.02;35.43;97406.81;5032728;28;20045;-75
2021/06/10 10:06:22;;;;;;;0.40;0.40;;;;;;;34.87;36.59;97406.56;5033142;28;20029;-75
2021/06/10 10:08:54;;;;;;;0.73;0.45;;;;;;;35.47;36.20;97401.16;5033335;28;20148;-74
2021/06/10 10:11:21;;;;;;;2.05;1.45;;;;;;;36.66;33.10;97410.47;5016447;28;20507;-75
2021/06/10 10:13:49;;;;;;;0.22;0.22;;;;;;;36.28;34.48;97401.13;5036371;28;20070;-75
2021/06/10 10:16:18;;;;;;;1.02;0.70;;;;;;;36.31;32.30;97385.81;5036463;28;20041;-75
2021/06/10 10:18:44;;;;;;;0.22;0.22;;;;;;;37.09;32.90;97381.56;5052827;28;20045;-75
2021/06/10 10:21:10;;;;;;;0.40;0.40;;;;;;;37.23;30.11;97361.28;5053961;28;20072;-75
2021/06/10 10:23:35;;;;;;;0.57;0.30;;;;;;;36.94;31.98;97376.69;5052439;28;20065;-75
2021/06/10 10:26:06;;;;;;;0.10;0.10;;;;;;;36.44;31.34;97351.94;5054171;28;20028;-75
2021/06/10 10:28:36;;;;;;;0.22;0.22;;;;;;;36.79;29.65;97362.63;5052467;28;20082;-75
2021/06/10 10:31:04;;;;;;;0.05;0.05;;;;;;;36.74;31.60;97365.34;5053985;28;20024;-74
2021/06/10 10:33:29;;;;;;;0.57;0.50;;;;;;;37.00;31.23;97361.69;5018518;28;20030;-75
2021/06/10 10:35:59;;;;;;;0.63;0.50;;;;;;;36.36;31.00;97364.41;5032577;28;20056;-75
2021/06/10 10:38:41;;;;;;;0.45;0.45;;;;;;;36.06;31.59;97364.09;5032471;28;20218;-76
2021/06/10 10:41:11;;;;;;;0.45;0.38;;;;;;;33.50;31.95;97344.69;4999979;28;20060;-74
2021/06/10 10:43:38;;;;;;;0.20;0.20;;;;;;;33.74;32.80;97343.56;5033428;28;20029;-75
2021/06/10 10:46:11;;;;;;;3.58;1.02;;;;;;;35.82;31.66;97354.31;5016203;28;20404;-74
2021/06/10 10:48:41;;;;;;;3.72;3.40;;;;;;;37.31;28.18;97340.41;5050565;28;20108;-74
2021/06/10 10:51:36;;;;;;;3.67;2.75;;;;;;;36.15;29.22;97337.44;5035805;28;20490;-74
2021/06/10 10:54:07;;;;;;;2.88;2.67;;;;;;;36.86;29.15;97327.81;5052415;28;20032;-74
2021/06/10 10:56:35;;;;;;;3.63;3.28;;;;;;;37.16;28.17;97315.22;5035903;28;20028;-74
2021/06/10 10:59:21;;;;;;;5.68;3.20;;;;;;;37.89;27.23;97316.97;5053447;28;20040;-74
2021/06/10 11:02:05;;;;;;;5.75;3.50;;;;;;;36.27;29.86;97323.38;5023988;28;20050;-74
2021/06/10 11:04:50;;;;;;;2.47;2.28;;;;;;;36.34;29.46;97313.66;5031945;28;20443;-73
2021/06/10 11:07:39;;;;;;;3.45;2.10;;;;;;;36.64;28.00;97301.16;5033183;28;20033;-74
2021/06/10 11:10:10;;;;;;;2.60;2.40;;;;;;;35.68;28.27;97298.19;5033241;28;20022;-74
2021/06/10 11:12:44;;;;;;;3.67;2.58;;;;;;;36.57;27.32;97297.72;5050325;28;20017;-74
2021/06/10 11:15:15;;;;;;;2.95;2.60;;;;;;;36.85;28.74;97289.03;5052951;28;20031;-74
2021/06/10 11:17:45;;;;;;;3.97;3.45;;;;;;;37.83;26.78;97282.59;5052601;28;20510;-76
2021/06/10 11:20:14;;;;;;;14.07;3.20;;;;;;;37.64;26.97;97284.22;5046113;28;20041;-75
2021/06/10 11:22:40;;;;;;;6.97;3.22;;;;;;;38.25;27.25;97274.03;5015340;28;20032;-75
2021/06/10 11:25:10;;;;;;;3.85;3.35;;;;;;;39.02;25.54;97275.72;5031697;28;20091;-75